Pride Of Bruges — PGJW — position and weather

sailwx.info

Track history (hours):
 
Tides and Currents Weather Stations Pressure Air Temp Water Temp Dewpoint Dewpoint Depression Visibility Wind Speed Wind Dir Waves Ship Positions

Pride Of Bruges

Operator: P&O Ferries

Last reported at 2018-Apr-25 02:19 UTC. Time now 2018-Apr-25 02:38 UTC.
Position N 53°20' E 000°59'.

Length 180 m; draft 6 m.

Type: Ship (hazmat cat A). MMSI: 244387000.

Date/timePositionNaut miles runAvg speedWind from/ knotsBaromVisibWave heightAir tempDewpointWater temp
2018-Apr-25 02:19N 53°20' E 000°59'913.8
2018-Apr-25 01:42N 53°14' E 001°09'313.6
2018-Apr-25 01:27N 53°11' E 001°13'613.8
2018-Apr-25 01:01N 53°07' E 001°20'714.4
2018-Apr-25 00:30N 53°02' E 001°29'714.7
2018-Apr-25 00:01N 52°56' E 001°36'815.5
2018-Apr-24 23:31N 52°50' E 001°44'816.5
2018-Apr-24 23:01N 52°44' E 001°53'917.4
2018-Apr-24 22:30N 52°37' E 002°02'5316.8
2018-Apr-24 19:20N 51°48' E 002°38'816.0
2018-Apr-24 18:50N 51°41' E 002°42'515.9
2018-Apr-24 18:29N 51°36' E 002°47'816.0
2018-Apr-24 18:00N 51°30' E 002°55'915.0
2018-Apr-24 17:25N 51°24' E 003°05'513.2
2018-Apr-24 17:00N 51°21' E 003°12'1 0.5
2018-Apr-24 15:03N 51°20' E 003°11'0 0.0
2018-Apr-24 14:54N 51°20' E 003°11'0 0.0
2018-Apr-24 14:27N 51°20' E 003°11'0 0.0
2018-Apr-24 13:45N 51°20' E 003°11'0 0.0
2018-Apr-24 13:18N 51°20' E 003°11'0 0.0
2018-Apr-24 12:11N 51°20' E 003°11'0 0.0
2018-Apr-24 11:53N 51°20' E 003°11'0 0.0
2018-Apr-24 11:17N 51°20' E 003°11'0 0.0
2018-Apr-24 10:53N 51°20' E 003°11'0 0.0
2018-Apr-24 10:19N 51°20' E 003°11'0 0.0
2018-Apr-24 09:55N 51°20' E 003°11'0 0.0
2018-Apr-24 09:25N 51°20' E 003°11'0 0.0
2018-Apr-24 08:58N 51°20' E 003°11'0 0.0
2018-Apr-24 07:30N 51°20' E 003°11'0 0.0
2018-Apr-24 06:54N 51°20' E 003°11'2 4.3
2018-Apr-24 06:31N 51°22' E 003°11'714.3
2018-Apr-24 06:00N 51°25' E 003°01'714.2
2018-Apr-24 05:29N 51°29' E 002°51'814.7
2018-Apr-24 04:58N 51°35' E 002°43'714.3
2018-Apr-24 04:30N 51°41' E 002°39'815.3
2018-Apr-24 03:59N 51°49' E 002°35'1715.3
2018-Apr-24 02:52N 52°05' E 002°25'3215.7
2018-Apr-24 00:48N 52°34' E 002°03'517.1
2018-Apr-24 00:31N 52°39' E 001°59'817.0
2018-Apr-24 00:01N 52°45' E 001°50'917.0
2018-Apr-23 23:30N 52°51' E 001°40'917.2
2018-Apr-23 23:00N 52°56' E 001°28'917.3
2018-Apr-23 22:30N 52°59' E 001°15'4716.3
2018-Apr-23 19:36N 53°31' E 000°17'215.7
2018-Apr-23 19:30N 53°32' E 000°15'815.5
2018-Apr-23 19:00N 53°35' E 000°03'815.0
2018-Apr-23 18:30N 53°38' W 000°09'612.9
2018-Apr-23 18:00N 53°43' W 000°15'1 2.9
2018-Apr-23 17:30N 53°44' W 000°16'0 0.2
2018-Apr-23 17:00N 53°45' W 000°16'0 0.0
2018-Apr-23 16:29N 53°45' W 000°16'0 0.0
2018-Apr-23 15:59N 53°45' W 000°16'0 0.0
2018-Apr-23 15:29N 53°45' W 000°16'0 0.0
2018-Apr-23 14:58N 53°45' W 000°16'0 0.0
2018-Apr-23 14:28N 53°45' W 000°16'0 0.0
2018-Apr-23 13:58N 53°45' W 000°16'0 0.0
2018-Apr-23 13:28N 53°45' W 000°16'0 0.0
2018-Apr-23 12:58N 53°45' W 000°16'0 0.0
2018-Apr-23 12:30N 53°45' W 000°16'0 0.0
2018-Apr-23 12:00N 53°45' W 000°16'0 0.0
2018-Apr-23 11:30N 53°45' W 000°16'0 0.0
2018-Apr-23 11:00N 53°45' W 000°16'0 0.0
2018-Apr-23 10:29N 53°45' W 000°16'0 0.0
2018-Apr-23 09:56N 53°45' W 000°16'0 0.0
2018-Apr-23 09:29N 53°45' W 000°16'0 0.0
2018-Apr-23 08:59N 53°45' W 000°16'0 0.0
2018-Apr-23 08:29N 53°45' W 000°16'0 0.0
2018-Apr-23 07:58N 53°45' W 000°16'0 0.1
2018-Apr-23 07:28N 53°45' W 000°16'0 0.2
2018-Apr-23 07:00N 53°44' W 000°16'1 2.6
2018-Apr-23 06:30N 53°43' W 000°15'612.5
2018-Apr-23 06:00N 53°38' W 000°10'713.2
2018-Apr-23 05:30N 53°35' E 000°00'714.5
2018-Apr-23 05:00N 53°33' E 000°12'3513.5
2018-Apr-23 02:22N 53°17' E 001°05'513.6
2018-Apr-23 02:00N 53°13' E 001°11'713.4
2018-Apr-23 01:30N 53°08' E 001°18'612.9
2018-Apr-23 01:00N 53°03' E 001°24'611.7
2018-Apr-23 00:30N 52°58' E 001°30'612.3
2018-Apr-23 00:00N 52°54' E 001°37'612.7
2018-Apr-22 23:30N 52°49' E 001°45'713.2
2018-Apr-22 23:00N 52°44' E 001°52'713.5
2018-Apr-22 22:30N 52°38' E 001°57'814.2
2018-Apr-22 21:56N 52°31' E 002°03'1815.8
2018-Apr-22 20:46N 52°14' E 002°15'417.1
2018-Apr-22 20:31N 52°10' E 002°18'1516.9
2018-Apr-22 19:39N 51°57' E 002°28'416.8
2018-Apr-22 19:23N 51°53' E 002°32'617.0
2018-Apr-22 19:00N 51°47' E 002°36'916.8
2018-Apr-22 18:30N 51°40' E 002°43'816.3
2018-Apr-22 18:00N 51°33' E 002°50'815.9
2018-Apr-22 17:30N 51°27' E 002°59'714.2
2018-Apr-22 17:00N 51°24' E 003°08'4 7.7
2018-Apr-22 16:30N 51°20' E 003°11'0 0.1
2018-Apr-22 16:01N 51°20' E 003°11'0 0.0
2018-Apr-22 15:29N 51°20' E 003°11'0 0.0
2018-Apr-22 15:00N 51°20' E 003°11'0 0.0
2018-Apr-22 14:30N 51°20' E 003°11'0 0.0
2018-Apr-22 14:00N 51°20' E 003°11'0 0.0
2018-Apr-22 13:30N 51°20' E 003°11'0 0.0
2018-Apr-22 13:00N 51°20' E 003°11'0 0.0
2018-Apr-22 12:30N 51°20' E 003°11'0 0.0
2018-Apr-22 12:00N 51°20' E 003°11'0 0.0
2018-Apr-22 11:30N 51°20' E 003°11'0 0.0
2018-Apr-22 10:59N 51°20' E 003°11'0 0.0
2018-Apr-22 10:30N 51°20' E 003°11'0 0.0
2018-Apr-22 10:00N 51°20' E 003°11'0 0.0
2018-Apr-22 09:30N 51°20' E 003°11'0 0.0
2018-Apr-22 09:00N 51°20' E 003°11'0 0.0
2018-Apr-22 08:30N 51°20' E 003°11'0 0.0
2018-Apr-22 08:00N 51°20' E 003°11'0 0.0
2018-Apr-22 07:30N 51°20' E 003°11'0 0.0
2018-Apr-22 07:00N 51°20' E 003°11'2 3.5
2018-Apr-22 06:30N 51°22' E 003°11'713.7
2018-Apr-22 06:00N 51°25' E 003°01'714.3
2018-Apr-22 05:30N 51°29' E 002°52'713.6
2018-Apr-22 04:59N 51°34' E 002°44'714.3
2018-Apr-22 04:30N 51°41' E 002°40'714.5
2018-Apr-22 04:00N 51°47' E 002°36'1714.5
2018-Apr-22 02:52N 52°03' E 002°25'614.9
2018-Apr-22 02:27N 52°08' E 002°20'715.1
2018-Apr-22 01:59N 52°14' E 002°16'1315.3
2018-Apr-22 01:06N 52°27' E 002°08'215.7
2018-Apr-22 01:00N 52°28' E 002°07'815.8
2018-Apr-22 00:30N 52°36' E 002°01'917.6
2018-Apr-22 00:00N 52°43' E 001°54'918.1
2018-Apr-21 23:30N 52°49' E 001°42'917.9
2018-Apr-21 23:00N 52°55' E 001°31'917.9
2018-Apr-21 22:30N 52°59' E 001°18'1717.3
2018-Apr-21 21:32N 53°08' E 000°54'117.5
2018-Apr-21 21:30N 53°08' E 000°54'917.5
2018-Apr-21 21:00N 53°15' E 000°43'917.0
2018-Apr-21 20:30N 53°21' E 000°34'817.1
2018-Apr-21 20:00N 53°28' E 000°25'816.6
2018-Apr-21 19:30N 53°33' E 000°14'713.8
2018-Apr-21 19:00N 53°35' E 000°03'713.6
2018-Apr-21 18:30N 53°37' W 000°07'510.9
2018-Apr-21 18:01N 53°41' W 000°14'3 6.9
2018-Apr-21 17:30N 53°44' W 000°16'0 0.3
2018-Apr-21 17:00N 53°45' W 000°16'0 0.2
2018-Apr-21 16:28N 53°45' W 000°16'0 0.0
2018-Apr-21 15:58N 53°45' W 000°16'0 0.0
2018-Apr-21 15:28N 53°45' W 000°16'0 0.0
2018-Apr-21 14:58N 53°45' W 000°16'0 0.0
2018-Apr-21 14:30N 53°45' W 000°16'0 0.0
2018-Apr-21 14:00N 53°45' W 000°16'0 0.0
2018-Apr-21 13:30N 53°45' W 000°16'0 0.0
2018-Apr-21 13:00N 53°45' W 000°16'0 0.0
2018-Apr-21 12:30N 53°45' W 000°16'0 0.0
2018-Apr-21 11:59N 53°45' W 000°16'0 0.0
2018-Apr-21 11:29N 53°45' W 000°16'0 0.0
2018-Apr-21 10:59N 53°45' W 000°16'0 0.0
2018-Apr-21 10:29N 53°45' W 000°16'0 0.0
2018-Apr-21 09:58N 53°45' W 000°16'0 0.0
2018-Apr-21 09:28N 53°45' W 000°16'0 0.0
2018-Apr-21 08:58N 53°45' W 000°16'0 0.0
2018-Apr-21 08:28N 53°45' W 000°16'0 0.0
2018-Apr-21 07:58N 53°45' W 000°16'0 0.0
2018-Apr-21 07:30N 53°45' W 000°16'0 0.2
2018-Apr-21 07:00N 53°44' W 000°16'0 0.6
2018-Apr-21 06:31N 53°44' W 000°17'714.2
2018-Apr-21 06:00N 53°38' W 000°10'714.5
2018-Apr-21 05:30N 53°35' E 000°01'816.0
2018-Apr-21 05:01N 53°33' E 000°14'914.3
2018-Apr-21 04:25N 53°31' E 000°28'1615.0
2018-Apr-21 03:19N 53°23' E 000°52'515.6
2018-Apr-21 02:58N 53°20' E 000°59'715.5
2018-Apr-21 02:30N 53°15' E 001°07'714.9
2018-Apr-21 02:00N 53°09' E 001°16'714.4
2018-Apr-21 01:30N 53°04' E 001°24'714.0
2018-Apr-21 01:00N 52°59' E 001°32'714.1
2018-Apr-21 00:30N 52°54' E 001°40'713.9
2018-Apr-21 00:00N 52°48' E 001°47'713.5
2018-Apr-20 23:30N 52°43' E 001°54'713.2
2018-Apr-20 23:00N 52°37' E 002°00'612.8
2018-Apr-20 22:30N 52°31' E 002°03'713.5
2018-Apr-20 22:00N 52°25' E 002°08'714.4
2018-Apr-20 21:30N 52°18' E 002°13'715.1
2018-Apr-20 21:00N 52°12' E 002°18'815.7
2018-Apr-20 20:30N 52°04' E 002°23'816.1
2018-Apr-20 20:00N 51°57' E 002°28'815.9
2018-Apr-20 19:30N 51°50' E 002°34'1116.0
2018-Apr-20 18:50N 51°41' E 002°42'516.0
2018-Apr-20 18:30N 51°36' E 002°47'816.2
2018-Apr-20 18:00N 51°30' E 002°55'915.4
2018-Apr-20 17:27N 51°24' E 003°05'612.7
2018-Apr-20 17:00N 51°21' E 003°12'1 1.1
2018-Apr-20 16:19N 51°20' E 003°11'0 0.0
2018-Apr-20 15:58N 51°20' E 003°11'0 0.0
2018-Apr-20 15:19N 51°20' E 003°11'0 0.0
2018-Apr-20 14:58N 51°20' E 003°11'0 0.0
2018-Apr-20 14:27N 51°20' E 003°11'0 0.0
2018-Apr-20 13:54N 51°20' E 003°11'0 0.0
2018-Apr-20 13:30N 51°20' E 003°11'0 0.0
2018-Apr-20 12:57N 51°20' E 003°11'0 0.0
2018-Apr-20 12:27N 51°20' E 003°11'0 0.0
2018-Apr-20 11:59N 51°20' E 003°11'0 0.0
2018-Apr-20 11:23N 51°20' E 003°11'0 0.0
2018-Apr-20 10:59N 51°20' E 003°11'0 0.0
2018-Apr-20 10:29N 51°20' E 003°11'0 0.0
2018-Apr-20 09:59N 51°20' E 003°11'0 0.0
2018-Apr-20 09:28N 51°20' E 003°11'0 0.0
2018-Apr-20 08:52N 51°20' E 003°11'0 0.0
2018-Apr-20 08:28N 51°20' E 003°11'0 0.0
2018-Apr-20 07:58N 51°20' E 003°11'0 0.0
2018-Apr-20 07:30N 51°20' E 003°11'0 0.0
2018-Apr-20 07:00N 51°20' E 003°11'1 2.7
2018-Apr-20 06:30N 51°22' E 003°12'714.5
2018-Apr-20 06:00N 51°25' E 003°01'715.0
2018-Apr-20 05:30N 51°29' E 002°51'814.9
2018-Apr-20 05:00N 51°35' E 002°43'715.0
2018-Apr-20 04:30N 51°41' E 002°38'713.4
2018-Apr-20 04:00N 51°48' E 002°37'714.2
2018-Apr-20 03:30N 51°54' E 002°32'714.4
2018-Apr-20 02:59N 52°01' E 002°26'714.1
2018-Apr-20 02:30N 52°07' E 002°20'1814.4
2018-Apr-20 01:15N 52°24' E 002°09'414.6
2018-Apr-20 01:00N 52°27' E 002°07'815.7
2018-Apr-20 00:29N 52°34' E 002°02'817.5
2018-Apr-20 00:00N 52°42' E 001°55'918.2
2018-Apr-19 23:30N 52°48' E 001°45'918.6
2018-Apr-19 23:00N 52°54' E 001°32'918.6
2018-Apr-19 22:30N 52°58' E 001°19'918.6
2018-Apr-19 22:00N 53°03' E 001°05'918.4
2018-Apr-19 21:30N 53°09' E 000°54'918.2
2018-Apr-19 21:00N 53°15' E 000°43'2016.9
2018-Apr-19 19:48N 53°30' E 000°19'516.4
2018-Apr-19 19:30N 53°33' E 000°13'714.7
2018-Apr-19 19:00N 53°35' E 000°01'713.5
2018-Apr-19 18:31N 53°38' W 000°09'612.1
2018-Apr-19 18:00N 53°43' W 000°15'1 2.8
2018-Apr-19 17:30N 53°44' W 000°16'0 0.2
2018-Apr-19 17:00N 53°45' W 000°16'0 0.0
2018-Apr-19 16:30N 53°45' W 000°16'0 0.0
2018-Apr-19 16:00N 53°45' W 000°16'0 0.0
2018-Apr-19 15:30N 53°45' W 000°16'0 0.0
2018-Apr-19 14:59N 53°45' W 000°16'0 0.0
2018-Apr-19 14:29N 53°45' W 000°16'0 0.0
2018-Apr-19 13:59N 53°45' W 000°16'0 0.0
2018-Apr-19 13:29N 53°45' W 000°16'0 0.0
2018-Apr-19 12:58N 53°45' W 000°16'0 0.0
2018-Apr-19 12:28N 53°45' W 000°16'0 0.0
2018-Apr-19 11:58N 53°45' W 000°16'0 0.0
2018-Apr-19 11:28N 53°45' W 000°16'0 0.0
2018-Apr-19 10:58N 53°45' W 000°16'0 0.0
2018-Apr-19 10:30N 53°45' W 000°16'0 0.0
2018-Apr-19 10:00N 53°45' W 000°16'0 0.0
2018-Apr-19 09:30N 53°45' W 000°16'0 0.0
2018-Apr-19 09:00N 53°45' W 000°16'0 0.0
2018-Apr-19 08:29N 53°45' W 000°16'0 0.0
2018-Apr-19 07:59N 53°45' W 000°16'0 0.0
2018-Apr-19 07:29N 53°45' W 000°16'0 0.2
2018-Apr-19 07:00N 53°44' W 000°16'2 4.4
2018-Apr-19 06:31N 53°43' W 000°14'817.0
2018-Apr-19 06:01N 53°37' W 000°04'917.1
2018-Apr-19 05:31N 53°33' E 000°09'714.2
2018-Apr-19 05:01N 53°31' E 000°20'1012.3
2018-Apr-19 04:10N 53°27' E 000°36'212.1
2018-Apr-19 04:00N 53°26' E 000°39'713.2
2018-Apr-19 03:30N 53°23' E 000°49'714.6
2018-Apr-19 03:00N 53°20' E 000°60'815.0
2018-Apr-19 02:30N 53°14' E 001°08'815.0
2018-Apr-19 02:00N 53°08' E 001°16'714.8
2018-Apr-19 01:30N 53°03' E 001°25'714.2
2018-Apr-19 01:00N 52°58' E 001°33'714.2
2018-Apr-19 00:30N 52°52' E 001°40'714.1
2018-Apr-19 00:00N 52°47' E 001°48'714.2
2018-Apr-18 23:31N 52°42' E 001°56'714.2
2018-Apr-18 23:00N 52°36' E 002°02'713.9
2018-Apr-18 22:31N 52°29' E 002°06'713.8
2018-Apr-18 22:00N 52°23' E 002°10'1014.1
2018-Apr-18 21:19N 52°14' E 002°16'514.4
2018-Apr-18 20:58N 52°09' E 002°19'714.6
2018-Apr-18 20:29N 52°03' E 002°24'714.9
2018-Apr-18 20:00N 51°56' E 002°29'815.1
2018-Apr-18 19:29N 51°49' E 002°35'815.0
2018-Apr-18 18:58N 51°42' E 002°41'715.1
2018-Apr-18 18:30N 51°36' E 002°47'815.2
2018-Apr-18 18:00N 51°30' E 002°54'715.0
2018-Apr-18 17:30N 51°25' E 003°02'714.3
2018-Apr-18 17:00N 51°21' E 003°12'1 2.0
2018-Apr-18 16:30N 51°20' E 003°11'0 0.0
2018-Apr-18 16:00N 51°20' E 003°11'0 0.0
2018-Apr-18 15:30N 51°20' E 003°11'0 0.0
2018-Apr-18 15:00N 51°20' E 003°11'0 0.0
2018-Apr-18 14:29N 51°20' E 003°11'0 0.0
2018-Apr-18 13:59N 51°20' E 003°11'0 0.0
2018-Apr-18 13:29N 51°20' E 003°11'0 0.0
2018-Apr-18 12:59N 51°20' E 003°11'0 0.0
2018-Apr-18 12:29N 51°20' E 003°11'0 0.0
2018-Apr-18 11:58N 51°20' E 003°11'0 0.0
2018-Apr-18 11:28N 51°20' E 003°11'0 0.0
2018-Apr-18 10:58N 51°20' E 003°11'0 0.0
2018-Apr-18 10:28N 51°20' E 003°11'0 0.0
2018-Apr-18 10:00N 51°20' E 003°11'0 0.0
2018-Apr-18 09:30N 51°20' E 003°11'0 0.0
2018-Apr-18 09:00N 51°20' E 003°11'0 0.0
2018-Apr-18 08:30N 51°20' E 003°11'0 0.0
2018-Apr-18 08:00N 51°20' E 003°11'0 0.0
2018-Apr-18 07:31N 51°20' E 003°11'0 0.0
2018-Apr-18 07:00N 51°20' E 003°11'2 5.0
2018-Apr-18 06:30N 51°23' E 003°10'714.3
2018-Apr-18 06:00N 51°25' E 002°59'815.2
2018-Apr-18 05:31N 51°30' E 002°50'815.7
2018-Apr-18 04:59N 51°36' E 002°41'816.0
2018-Apr-18 04:30N 51°44' E 002°38'816.0
2018-Apr-18 03:59N 51°51' E 002°34'815.7
2018-Apr-18 03:29N 51°59' E 002°29'3615.0
2018-Apr-18 01:04N 52°32' E 002°06'115.3
2018-Apr-18 00:59N 52°33' E 002°05'715.2
2018-Apr-18 00:30N 52°39' E 001°59'815.8
2018-Apr-18 00:00N 52°45' E 001°50'816.3
2018-Apr-17 23:30N 52°51' E 001°40'816.5
2018-Apr-17 23:01N 52°56' E 001°29'917.2
2018-Apr-17 22:31N 52°59' E 001°16'917.3
2018-Apr-17 21:59N 53°04' E 001°03'3816.5
2018-Apr-17 19:41N 53°30' E 000°18'315.9
2018-Apr-17 19:30N 53°32' E 000°14'816.0
2018-Apr-17 19:01N 53°35' E 000°02'714.7
2018-Apr-17 18:30N 53°38' W 000°09'612.8
2018-Apr-17 18:00N 53°44' W 000°16'1 1.8
2018-Apr-17 17:30N 53°45' W 000°16'0 0.1
2018-Apr-17 16:55N 53°45' W 000°16'0 0.0
2018-Apr-17 16:28N 53°45' W 000°16'0 0.0
2018-Apr-17 15:58N 53°45' W 000°16'0 0.0
2018-Apr-17 15:27N 53°45' W 000°16'0 0.0
2018-Apr-17 15:00N 53°45' W 000°16'0 0.0
2018-Apr-17 14:30N 53°45' W 000°16'0 0.0
2018-Apr-17 14:00N 53°45' W 000°16'0 0.0
2018-Apr-17 13:30N 53°45' W 000°16'0 0.0
2018-Apr-17 12:59N 53°45' W 000°16'0 0.0
2018-Apr-17 12:29N 53°45' W 000°16'0 0.0
2018-Apr-17 11:59N 53°45' W 000°16'0 0.0
2018-Apr-17 11:29N 53°45' W 000°16'0 0.0
2018-Apr-17 10:58N 53°45' W 000°16'0 0.0
2018-Apr-17 10:28N 53°45' W 000°16'0 0.0
2018-Apr-17 09:58N 53°45' W 000°16'0 0.0
2018-Apr-17 09:28N 53°45' W 000°16'0 0.0
2018-Apr-17 08:58N 53°45' W 000°16'0 0.0
2018-Apr-17 08:30N 53°45' W 000°16'0 0.0
2018-Apr-17 08:00N 53°45' W 000°16'0 0.0
2018-Apr-17 07:30N 53°45' W 000°16'0 0.2
2018-Apr-17 07:00N 53°45' W 000°16'2 3.7
2018-Apr-17 06:30N 53°43' W 000°15'714.9
2018-Apr-17 06:00N 53°37' W 000°06'815.7
2018-Apr-17 05:30N 53°34' E 000°06'3514.3
2018-Apr-17 03:03N 53°20' E 000°60'114.8
2018-Apr-17 03:00N 53°19' E 001°00'814.9
2018-Apr-17 02:28N 53°13' E 001°09'715.1
2018-Apr-17 02:00N 53°08' E 001°18'815.5
2018-Apr-17 01:30N 53°03' E 001°26'815.8
2018-Apr-17 01:00N 52°57' E 001°35'816.1
2018-Apr-17 00:30N 52°51' E 001°44'815.9
2018-Apr-17 00:00N 52°45' E 001°52'5014.0
2018-Apr-16 20:26N 51°59' E 002°27'613.5
2018-Apr-16 20:00N 51°54' E 002°31'713.4
2018-Apr-16 19:30N 51°48' E 002°36'713.4
2018-Apr-16 19:00N 51°42' E 002°41'713.8
2018-Apr-16 18:31N 51°36' E 002°46'714.3
2018-Apr-16 18:00N 51°31' E 002°54'714.4
2018-Apr-16 17:31N 51°25' E 003°01'714.3
2018-Apr-16 17:00N 51°22' E 003°11'2 3.1
2018-Apr-16 16:29N 51°20' E 003°11'0 0.0
2018-Apr-16 15:59N 51°20' E 003°11'0 0.0
2018-Apr-16 15:29N 51°20' E 003°11'0 0.0
2018-Apr-16 14:58N 51°20' E 003°11'0 0.0
2018-Apr-16 14:28N 51°20' E 003°11'0 0.0
2018-Apr-16 13:58N 51°20' E 003°11'0 0.0
2018-Apr-16 13:28N 51°20' E 003°11'0 0.0
2018-Apr-16 13:00N 51°20' E 003°11'0 0.0
2018-Apr-16 12:30N 51°20' E 003°11'0 0.0
2018-Apr-16 12:00N 51°20' E 003°11'0 0.0
2018-Apr-16 11:30N 51°20' E 003°11'0 0.0
2018-Apr-16 11:00N 51°20' E 003°11'0 0.0
2018-Apr-16 10:29N 51°20' E 003°11'0 0.0
2018-Apr-16 09:59N 51°20' E 003°11'0 0.0
2018-Apr-16 09:29N 51°20' E 003°11'0 0.0
2018-Apr-16 08:59N 51°20' E 003°11'0 0.0
2018-Apr-16 08:28N 51°20' E 003°11'0 0.0
2018-Apr-16 07:58N 51°20' E 003°11'0 0.0
2018-Apr-16 07:28N 51°20' E 003°11'0 0.9
2018-Apr-16 07:00N 51°21' E 003°12'612.7
2018-Apr-16 06:31N 51°24' E 003°04'816.5
2018-Apr-16 06:01N 51°29' E 002°53'917.4
2018-Apr-16 05:30N 51°35' E 002°43'916.9
2018-Apr-16 04:59N 51°43' E 002°36'816.3
2018-Apr-16 04:30N 51°51' E 002°33'4715.8
2018-Apr-16 01:31N 52°33' E 002°01'014.4
2018-Apr-16 01:30N 52°33' E 002°01'713.5
2018-Apr-16 01:00N 52°40' E 001°56'612.9
2018-Apr-16 00:30N 52°45' E 001°51'714.3
2018-Apr-16 00:00N 52°50' E 001°43'714.5
2018-Apr-15 23:30N 52°56' E 001°36'815.2
2018-Apr-15 23:00N 53°02' E 001°27'815.6
2018-Apr-15 22:30N 53°08' E 001°19'815.7
2018-Apr-15 22:00N 53°14' E 001°10'815.8
2018-Apr-15 21:30N 53°19' E 001°00'2715.7
2018-Apr-15 19:48N 53°32' E 000°21'516.3
2018-Apr-15 19:30N 53°33' E 000°13'917.3
2018-Apr-15 19:00N 53°35' W 000°01'916.9
2018-Apr-15 18:30N 53°40' W 000°13'5 9.8
2018-Apr-15 18:01N 53°44' W 000°16'0 0.2
2018-Apr-15 17:30N 53°45' W 000°16'0 0.0
2018-Apr-15 16:58N 53°45' W 000°16'0 0.0
2018-Apr-15 16:28N 53°45' W 000°16'0 0.0
2018-Apr-15 15:58N 53°45' W 000°16'0 0.0
2018-Apr-15 15:30N 53°45' W 000°16'0 0.0
2018-Apr-15 15:00N 53°45' W 000°16'0 0.0
2018-Apr-15 14:30N 53°45' W 000°16'0 0.0
2018-Apr-15 14:00N 53°45' W 000°16'0 0.0
2018-Apr-15 13:30N 53°45' W 000°16'0 0.0
2018-Apr-15 12:59N 53°45' W 000°16'0 0.0
2018-Apr-15 12:29N 53°45' W 000°16'0 0.0
2018-Apr-15 11:59N 53°45' W 000°16'0 0.0
2018-Apr-15 11:29N 53°45' W 000°16'0 0.0
2018-Apr-15 10:58N 53°45' W 000°16'0 0.0
2018-Apr-15 10:28N 53°45' W 000°16'0 0.0
2018-Apr-15 09:58N 53°45' W 000°16'0 0.0
2018-Apr-15 09:28N 53°45' W 000°16'0 0.0
2018-Apr-15 09:01N 53°45' W 000°16'0 0.0
2018-Apr-15 08:30N 53°45' W 000°16'0 0.0
2018-Apr-15 08:00N 53°45' W 000°16'0 0.2
2018-Apr-15 07:30N 53°44' W 000°16'1 2.0
2018-Apr-15 07:00N 53°44' W 000°15'612.6
2018-Apr-15 06:30N 53°38' W 000°10'713.9
2018-Apr-15 06:01N 53°35' E 000°01'714.4
2018-Apr-15 05:30N 53°33' E 000°12'612.9
2018-Apr-15 05:01N 53°30' E 000°22'712.7
2018-Apr-15 04:29N 53°28' E 000°32'1412.8
2018-Apr-15 03:25N 53°22' E 000°53'513.1
2018-Apr-15 03:00N 53°19' E 001°01'713.2
2018-Apr-15 02:31N 53°14' E 001°08'  
Track history (hours):
 
Tides and Currents Weather Stations Pressure Air Temp Water Temp Dewpoint Dewpoint Depression Visibility Wind Speed Wind Dir Waves Ship Positions

Pride Of Bruges

Operator: P&O Ferries

Last reported at 2018-Apr-25 02:19 UTC. Time now 2018-Apr-25 02:38 UTC.
Position N 53°20' E 000°59'.

Length 180 m; draft 6 m.

Type: Ship (hazmat cat A). MMSI: 244387000.

Date/timePositionNaut miles runAvg speedWind from/ knotsBaromVisibWave heightAir tempDewpointWater temp
2018-Apr-25 02:19N 53°20' E 000°59'913.8
2018-Apr-25 01:42N 53°14' E 001°09'313.6
2018-Apr-25 01:27N 53°11' E 001°13'613.8
2018-Apr-25 01:01N 53°07' E 001°20'714.4
2018-Apr-25 00:30N 53°02' E 001°29'714.7
2018-Apr-25 00:01N 52°56' E 001°36'815.5
2018-Apr-24 23:31N 52°50' E 001°44'816.5
2018-Apr-24 23:01N 52°44' E 001°53'917.4
2018-Apr-24 22:30N 52°37' E 002°02'5316.8
2018-Apr-24 19:20N 51°48' E 002°38'816.0
2018-Apr-24 18:50N 51°41' E 002°42'515.9
2018-Apr-24 18:29N 51°36' E 002°47'816.0
2018-Apr-24 18:00N 51°30' E 002°55'915.0
2018-Apr-24 17:25N 51°24' E 003°05'513.2
2018-Apr-24 17:00N 51°21' E 003°12'1 0.5
2018-Apr-24 15:03N 51°20' E 003°11'0 0.0
2018-Apr-24 14:54N 51°20' E 003°11'0 0.0
2018-Apr-24 14:27N 51°20' E 003°11'0 0.0
2018-Apr-24 13:45N 51°20' E 003°11'0 0.0
2018-Apr-24 13:18N 51°20' E 003°11'0 0.0
2018-Apr-24 12:11N 51°20' E 003°11'0 0.0
2018-Apr-24 11:53N 51°20' E 003°11'0 0.0
2018-Apr-24 11:17N 51°20' E 003°11'0 0.0
2018-Apr-24 10:53N 51°20' E 003°11'0 0.0
2018-Apr-24 10:19N 51°20' E 003°11'0 0.0
2018-Apr-24 09:55N 51°20' E 003°11'0 0.0
2018-Apr-24 09:25N 51°20' E 003°11'0 0.0
2018-Apr-24 08:58N 51°20' E 003°11'0 0.0
2018-Apr-24 07:30N 51°20' E 003°11'0 0.0
2018-Apr-24 06:54N 51°20' E 003°11'2 4.3
2018-Apr-24 06:31N 51°22' E 003°11'714.3
2018-Apr-24 06:00N 51°25' E 003°01'714.2
2018-Apr-24 05:29N 51°29' E 002°51'814.7
2018-Apr-24 04:58N 51°35' E 002°43'714.3
2018-Apr-24 04:30N 51°41' E 002°39'815.3
2018-Apr-24 03:59N 51°49' E 002°35'1715.3
2018-Apr-24 02:52N 52°05' E 002°25'3215.7
2018-Apr-24 00:48N 52°34' E 002°03'517.1
2018-Apr-24 00:31N 52°39' E 001°59'817.0
2018-Apr-24 00:01N 52°45' E 001°50'917.0
2018-Apr-23 23:30N 52°51' E 001°40'917.2
2018-Apr-23 23:00N 52°56' E 001°28'917.3
2018-Apr-23 22:30N 52°59' E 001°15'4716.3
2018-Apr-23 19:36N 53°31' E 000°17'215.7
2018-Apr-23 19:30N 53°32' E 000°15'815.5
2018-Apr-23 19:00N 53°35' E 000°03'815.0
2018-Apr-23 18:30N 53°38' W 000°09'612.9
2018-Apr-23 18:00N 53°43' W 000°15'1 2.9
2018-Apr-23 17:30N 53°44' W 000°16'0 0.2
2018-Apr-23 17:00N 53°45' W 000°16'0 0.0
2018-Apr-23 16:29N 53°45' W 000°16'0 0.0
2018-Apr-23 15:59N 53°45' W 000°16'0 0.0
2018-Apr-23 15:29N 53°45' W 000°16'0 0.0
2018-Apr-23 14:58N 53°45' W 000°16'0 0.0
2018-Apr-23 14:28N 53°45' W 000°16'0 0.0
2018-Apr-23 13:58N 53°45' W 000°16'0 0.0
2018-Apr-23 13:28N 53°45' W 000°16'0 0.0
2018-Apr-23 12:58N 53°45' W 000°16'0 0.0
2018-Apr-23 12:30N 53°45' W 000°16'0 0.0
2018-Apr-23 12:00N 53°45' W 000°16'0 0.0
2018-Apr-23 11:30N 53°45' W 000°16'0 0.0
2018-Apr-23 11:00N 53°45' W 000°16'0 0.0
2018-Apr-23 10:29N 53°45' W 000°16'0 0.0
2018-Apr-23 09:56N 53°45' W 000°16'0 0.0
2018-Apr-23 09:29N 53°45' W 000°16'0 0.0
2018-Apr-23 08:59N 53°45' W 000°16'0 0.0
2018-Apr-23 08:29N 53°45' W 000°16'0 0.0
2018-Apr-23 07:58N 53°45' W 000°16'0 0.1
2018-Apr-23 07:28N 53°45' W 000°16'0 0.2
2018-Apr-23 07:00N 53°44' W 000°16'1 2.6
2018-Apr-23 06:30N 53°43' W 000°15'612.5
2018-Apr-23 06:00N 53°38' W 000°10'713.2
2018-Apr-23 05:30N 53°35' E 000°00'714.5
2018-Apr-23 05:00N 53°33' E 000°12'3513.5
2018-Apr-23 02:22N 53°17' E 001°05'513.6
2018-Apr-23 02:00N 53°13' E 001°11'713.4
2018-Apr-23 01:30N 53°08' E 001°18'612.9
2018-Apr-23 01:00N 53°03' E 001°24'611.7
2018-Apr-23 00:30N 52°58' E 001°30'612.3
2018-Apr-23 00:00N 52°54' E 001°37'612.7
2018-Apr-22 23:30N 52°49' E 001°45'713.2
2018-Apr-22 23:00N 52°44' E 001°52'713.5
2018-Apr-22 22:30N 52°38' E 001°57'814.2
2018-Apr-22 21:56N 52°31' E 002°03'1815.8
2018-Apr-22 20:46N 52°14' E 002°15'417.1
2018-Apr-22 20:31N 52°10' E 002°18'1516.9
2018-Apr-22 19:39N 51°57' E 002°28'416.8
2018-Apr-22 19:23N 51°53' E 002°32'617.0
2018-Apr-22 19:00N 51°47' E 002°36'916.8
2018-Apr-22 18:30N 51°40' E 002°43'816.3
2018-Apr-22 18:00N 51°33' E 002°50'815.9
2018-Apr-22 17:30N 51°27' E 002°59'714.2
2018-Apr-22 17:00N 51°24' E 003°08'4 7.7
2018-Apr-22 16:30N 51°20' E 003°11'0 0.1
2018-Apr-22 16:01N 51°20' E 003°11'0 0.0
2018-Apr-22 15:29N 51°20' E 003°11'0 0.0
2018-Apr-22 15:00N 51°20' E 003°11'0 0.0
2018-Apr-22 14:30N 51°20' E 003°11'0 0.0
2018-Apr-22 14:00N 51°20' E 003°11'0 0.0
2018-Apr-22 13:30N 51°20' E 003°11'0 0.0
2018-Apr-22 13:00N 51°20' E 003°11'0 0.0
2018-Apr-22 12:30N 51°20' E 003°11'0 0.0
2018-Apr-22 12:00N 51°20' E 003°11'0 0.0
2018-Apr-22 11:30N 51°20' E 003°11'0 0.0
2018-Apr-22 10:59N 51°20' E 003°11'0 0.0
2018-Apr-22 10:30N 51°20' E 003°11'0 0.0
2018-Apr-22 10:00N 51°20' E 003°11'0 0.0
2018-Apr-22 09:30N 51°20' E 003°11'0 0.0
2018-Apr-22 09:00N 51°20' E 003°11'0 0.0
2018-Apr-22 08:30N 51°20' E 003°11'0 0.0
2018-Apr-22 08:00N 51°20' E 003°11'0 0.0
2018-Apr-22 07:30N 51°20' E 003°11'0 0.0
2018-Apr-22 07:00N 51°20' E 003°11'2 3.5
2018-Apr-22 06:30N 51°22' E 003°11'713.7
2018-Apr-22 06:00N 51°25' E 003°01'714.3
2018-Apr-22 05:30N 51°29' E 002°52'713.6
2018-Apr-22 04:59N 51°34' E 002°44'714.3
2018-Apr-22 04:30N 51°41' E 002°40'714.5
2018-Apr-22 04:00N 51°47' E 002°36'1714.5
2018-Apr-22 02:52N 52°03' E 002°25'614.9
2018-Apr-22 02:27N 52°08' E 002°20'715.1
2018-Apr-22 01:59N 52°14' E 002°16'1315.3
2018-Apr-22 01:06N 52°27' E 002°08'215.7
2018-Apr-22 01:00N 52°28' E 002°07'815.8
2018-Apr-22 00:30N 52°36' E 002°01'917.6
2018-Apr-22 00:00N 52°43' E 001°54'918.1
2018-Apr-21 23:30N 52°49' E 001°42'917.9
2018-Apr-21 23:00N 52°55' E 001°31'917.9
2018-Apr-21 22:30N 52°59' E 001°18'1717.3
2018-Apr-21 21:32N 53°08' E 000°54'117.5
2018-Apr-21 21:30N 53°08' E 000°54'917.5
2018-Apr-21 21:00N 53°15' E 000°43'917.0
2018-Apr-21 20:30N 53°21' E 000°34'817.1
2018-Apr-21 20:00N 53°28' E 000°25'816.6
2018-Apr-21 19:30N 53°33' E 000°14'713.8
2018-Apr-21 19:00N 53°35' E 000°03'713.6
2018-Apr-21 18:30N 53°37' W 000°07'510.9
2018-Apr-21 18:01N 53°41' W 000°14'3 6.9
2018-Apr-21 17:30N 53°44' W 000°16'0 0.3
2018-Apr-21 17:00N 53°45' W 000°16'0 0.2
2018-Apr-21 16:28N 53°45' W 000°16'0 0.0
2018-Apr-21 15:58N 53°45' W 000°16'0 0.0
2018-Apr-21 15:28N 53°45' W 000°16'0 0.0
2018-Apr-21 14:58N 53°45' W 000°16'0 0.0
2018-Apr-21 14:30N 53°45' W 000°16'0 0.0
2018-Apr-21 14:00N 53°45' W 000°16'0 0.0
2018-Apr-21 13:30N 53°45' W 000°16'0 0.0
2018-Apr-21 13:00N 53°45' W 000°16'0 0.0
2018-Apr-21 12:30N 53°45' W 000°16'0 0.0
2018-Apr-21 11:59N 53°45' W 000°16'0 0.0
2018-Apr-21 11:29N 53°45' W 000°16'0 0.0
2018-Apr-21 10:59N 53°45' W 000°16'0 0.0
2018-Apr-21 10:29N 53°45' W 000°16'0 0.0
2018-Apr-21 09:58N 53°45' W 000°16'0 0.0
2018-Apr-21 09:28N 53°45' W 000°16'0 0.0
2018-Apr-21 08:58N 53°45' W 000°16'0 0.0
2018-Apr-21 08:28N 53°45' W 000°16'0 0.0
2018-Apr-21 07:58N 53°45' W 000°16'0 0.0
2018-Apr-21 07:30N 53°45' W 000°16'0 0.2
2018-Apr-21 07:00N 53°44' W 000°16'0 0.6
2018-Apr-21 06:31N 53°44' W 000°17'714.2
2018-Apr-21 06:00N 53°38' W 000°10'714.5
2018-Apr-21 05:30N 53°35' E 000°01'816.0
2018-Apr-21 05:01N 53°33' E 000°14'914.3
2018-Apr-21 04:25N 53°31' E 000°28'1615.0
2018-Apr-21 03:19N 53°23' E 000°52'515.6
2018-Apr-21 02:58N 53°20' E 000°59'715.5
2018-Apr-21 02:30N 53°15' E 001°07'714.9
2018-Apr-21 02:00N 53°09' E 001°16'714.4
2018-Apr-21 01:30N 53°04' E 001°24'714.0
2018-Apr-21 01:00N 52°59' E 001°32'714.1
2018-Apr-21 00:30N 52°54' E 001°40'713.9
2018-Apr-21 00:00N 52°48' E 001°47'713.5
2018-Apr-20 23:30N 52°43' E 001°54'713.2
2018-Apr-20 23:00N 52°37' E 002°00'612.8
2018-Apr-20 22:30N 52°31' E 002°03'713.5
2018-Apr-20 22:00N 52°25' E 002°08'714.4
2018-Apr-20 21:30N 52°18' E 002°13'715.1
2018-Apr-20 21:00N 52°12' E 002°18'815.7
2018-Apr-20 20:30N 52°04' E 002°23'816.1
2018-Apr-20 20:00N 51°57' E 002°28'815.9
2018-Apr-20 19:30N 51°50' E 002°34'1116.0
2018-Apr-20 18:50N 51°41' E 002°42'516.0
2018-Apr-20 18:30N 51°36' E 002°47'816.2
2018-Apr-20 18:00N 51°30' E 002°55'915.4
2018-Apr-20 17:27N 51°24' E 003°05'612.7
2018-Apr-20 17:00N 51°21' E 003°12'1 1.1
2018-Apr-20 16:19N 51°20' E 003°11'0 0.0
2018-Apr-20 15:58N 51°20' E 003°11'0 0.0
2018-Apr-20 15:19N 51°20' E 003°11'0 0.0
2018-Apr-20 14:58N 51°20' E 003°11'0 0.0
2018-Apr-20 14:27N 51°20' E 003°11'0 0.0
2018-Apr-20 13:54N 51°20' E 003°11'0 0.0
2018-Apr-20 13:30N 51°20' E 003°11'0 0.0
2018-Apr-20 12:57N 51°20' E 003°11'0 0.0
2018-Apr-20 12:27N 51°20' E 003°11'0 0.0
2018-Apr-20 11:59N 51°20' E 003°11'0 0.0
2018-Apr-20 11:23N 51°20' E 003°11'0 0.0
2018-Apr-20 10:59N 51°20' E 003°11'0 0.0
2018-Apr-20 10:29N 51°20' E 003°11'0 0.0
2018-Apr-20 09:59N 51°20' E 003°11'0 0.0
2018-Apr-20 09:28N 51°20' E 003°11'0 0.0
2018-Apr-20 08:52N 51°20' E 003°11'0 0.0
2018-Apr-20 08:28N 51°20' E 003°11'0 0.0
2018-Apr-20 07:58N 51°20' E 003°11'0 0.0
2018-Apr-20 07:30N 51°20' E 003°11'0 0.0
2018-Apr-20 07:00N 51°20' E 003°11'1 2.7
2018-Apr-20 06:30N 51°22' E 003°12'714.5
2018-Apr-20 06:00N 51°25' E 003°01'715.0
2018-Apr-20 05:30N 51°29' E 002°51'814.9
2018-Apr-20 05:00N 51°35' E 002°43'715.0
2018-Apr-20 04:30N 51°41' E 002°38'713.4
2018-Apr-20 04:00N 51°48' E 002°37'714.2
2018-Apr-20 03:30N 51°54' E 002°32'714.4
2018-Apr-20 02:59N 52°01' E 002°26'714.1
2018-Apr-20 02:30N 52°07' E 002°20'1814.4
2018-Apr-20 01:15N 52°24' E 002°09'414.6
2018-Apr-20 01:00N 52°27' E 002°07'815.7
2018-Apr-20 00:29N 52°34' E 002°02'817.5
2018-Apr-20 00:00N 52°42' E 001°55'918.2
2018-Apr-19 23:30N 52°48' E 001°45'918.6
2018-Apr-19 23:00N 52°54' E 001°32'918.6
2018-Apr-19 22:30N 52°58' E 001°19'918.6
2018-Apr-19 22:00N 53°03' E 001°05'918.4
2018-Apr-19 21:30N 53°09' E 000°54'918.2
2018-Apr-19 21:00N 53°15' E 000°43'2016.9
2018-Apr-19 19:48N 53°30' E 000°19'516.4
2018-Apr-19 19:30N 53°33' E 000°13'714.7
2018-Apr-19 19:00N 53°35' E 000°01'713.5
2018-Apr-19 18:31N 53°38' W 000°09'612.1
2018-Apr-19 18:00N 53°43' W 000°15'1 2.8
2018-Apr-19 17:30N 53°44' W 000°16'0 0.2
2018-Apr-19 17:00N 53°45' W 000°16'0 0.0
2018-Apr-19 16:30N 53°45' W 000°16'0 0.0
2018-Apr-19 16:00N 53°45' W 000°16'0 0.0
2018-Apr-19 15:30N 53°45' W 000°16'0 0.0
2018-Apr-19 14:59N 53°45' W 000°16'0 0.0
2018-Apr-19 14:29N 53°45' W 000°16'0 0.0
2018-Apr-19 13:59N 53°45' W 000°16'0 0.0
2018-Apr-19 13:29N 53°45' W 000°16'0 0.0
2018-Apr-19 12:58N 53°45' W 000°16'0 0.0
2018-Apr-19 12:28N 53°45' W 000°16'0 0.0
2018-Apr-19 11:58N 53°45' W 000°16'0 0.0
2018-Apr-19 11:28N 53°45' W 000°16'0 0.0
2018-Apr-19 10:58N 53°45' W 000°16'0 0.0
2018-Apr-19 10:30N 53°45' W 000°16'0 0.0
2018-Apr-19 10:00N 53°45' W 000°16'0 0.0
2018-Apr-19 09:30N 53°45' W 000°16'0 0.0
2018-Apr-19 09:00N 53°45' W 000°16'0 0.0
2018-Apr-19 08:29N 53°45' W 000°16'0 0.0
2018-Apr-19 07:59N 53°45' W 000°16'0 0.0
2018-Apr-19 07:29N 53°45' W 000°16'0 0.2
2018-Apr-19 07:00N 53°44' W 000°16'2 4.4
2018-Apr-19 06:31N 53°43' W 000°14'817.0
2018-Apr-19 06:01N 53°37' W 000°04'917.1
2018-Apr-19 05:31N 53°33' E 000°09'714.2
2018-Apr-19 05:01N 53°31' E 000°20'1012.3
2018-Apr-19 04:10N 53°27' E 000°36'212.1
2018-Apr-19 04:00N 53°26' E 000°39'713.2
2018-Apr-19 03:30N 53°23' E 000°49'714.6
2018-Apr-19 03:00N 53°20' E 000°60'815.0
2018-Apr-19 02:30N 53°14' E 001°08'815.0
2018-Apr-19 02:00N 53°08' E 001°16'714.8
2018-Apr-19 01:30N 53°03' E 001°25'714.2
2018-Apr-19 01:00N 52°58' E 001°33'714.2
2018-Apr-19 00:30N 52°52' E 001°40'714.1
2018-Apr-19 00:00N 52°47' E 001°48'714.2
2018-Apr-18 23:31N 52°42' E 001°56'714.2
2018-Apr-18 23:00N 52°36' E 002°02'713.9
2018-Apr-18 22:31N 52°29' E 002°06'713.8
2018-Apr-18 22:00N 52°23' E 002°10'1014.1
2018-Apr-18 21:19N 52°14' E 002°16'514.4
2018-Apr-18 20:58N 52°09' E 002°19'714.6
2018-Apr-18 20:29N 52°03' E 002°24'714.9
2018-Apr-18 20:00N 51°56' E 002°29'815.1
2018-Apr-18 19:29N 51°49' E 002°35'815.0
2018-Apr-18 18:58N 51°42' E 002°41'715.1
2018-Apr-18 18:30N 51°36' E 002°47'815.2
2018-Apr-18 18:00N 51°30' E 002°54'715.0
2018-Apr-18 17:30N 51°25' E 003°02'714.3
2018-Apr-18 17:00N 51°21' E 003°12'1 2.0
2018-Apr-18 16:30N 51°20' E 003°11'0 0.0
2018-Apr-18 16:00N 51°20' E 003°11'0 0.0
2018-Apr-18 15:30N 51°20' E 003°11'0 0.0
2018-Apr-18 15:00N 51°20' E 003°11'0 0.0
2018-Apr-18 14:29N 51°20' E 003°11'0 0.0
2018-Apr-18 13:59N 51°20' E 003°11'0 0.0
2018-Apr-18 13:29N 51°20' E 003°11'0 0.0
2018-Apr-18 12:59N 51°20' E 003°11'0 0.0
2018-Apr-18 12:29N 51°20' E 003°11'0 0.0
2018-Apr-18 11:58N 51°20' E 003°11'0 0.0
2018-Apr-18 11:28N 51°20' E 003°11'0 0.0
2018-Apr-18 10:58N 51°20' E 003°11'0 0.0
2018-Apr-18 10:28N 51°20' E 003°11'0 0.0
2018-Apr-18 10:00N 51°20' E 003°11'0 0.0
2018-Apr-18 09:30N 51°20' E 003°11'0 0.0
2018-Apr-18 09:00N 51°20' E 003°11'0 0.0
2018-Apr-18 08:30N 51°20' E 003°11'0 0.0
2018-Apr-18 08:00N 51°20' E 003°11'0 0.0
2018-Apr-18 07:31N 51°20' E 003°11'0 0.0
2018-Apr-18 07:00N 51°20' E 003°11'2 5.0
2018-Apr-18 06:30N 51°23' E 003°10'714.3
2018-Apr-18 06:00N 51°25' E 002°59'815.2
2018-Apr-18 05:31N 51°30' E 002°50'815.7
2018-Apr-18 04:59N 51°36' E 002°41'816.0
2018-Apr-18 04:30N 51°44' E 002°38'816.0
2018-Apr-18 03:59N 51°51' E 002°34'815.7
2018-Apr-18 03:29N 51°59' E 002°29'3615.0
2018-Apr-18 01:04N 52°32' E 002°06'115.3
2018-Apr-18 00:59N 52°33' E 002°05'715.2
2018-Apr-18 00:30N 52°39' E 001°59'815.8
2018-Apr-18 00:00N 52°45' E 001°50'816.3
2018-Apr-17 23:30N 52°51' E 001°40'816.5
2018-Apr-17 23:01N 52°56' E 001°29'917.2
2018-Apr-17 22:31N 52°59' E 001°16'917.3
2018-Apr-17 21:59N 53°04' E 001°03'3816.5
2018-Apr-17 19:41N 53°30' E 000°18'315.9
2018-Apr-17 19:30N 53°32' E 000°14'816.0
2018-Apr-17 19:01N 53°35' E 000°02'714.7
2018-Apr-17 18:30N 53°38' W 000°09'612.8
2018-Apr-17 18:00N 53°44' W 000°16'1 1.8
2018-Apr-17 17:30N 53°45' W 000°16'0 0.1
2018-Apr-17 16:55N 53°45' W 000°16'0 0.0
2018-Apr-17 16:28N 53°45' W 000°16'0 0.0
2018-Apr-17 15:58N 53°45' W 000°16'0 0.0
2018-Apr-17 15:27N 53°45' W 000°16'0 0.0
2018-Apr-17 15:00N 53°45' W 000°16'0 0.0
2018-Apr-17 14:30N 53°45' W 000°16'0 0.0
2018-Apr-17 14:00N 53°45' W 000°16'0 0.0
2018-Apr-17 13:30N 53°45' W 000°16'0 0.0
2018-Apr-17 12:59N 53°45' W 000°16'0 0.0
2018-Apr-17 12:29N 53°45' W 000°16'0 0.0
2018-Apr-17 11:59N 53°45' W 000°16'0 0.0
2018-Apr-17 11:29N 53°45' W 000°16'0 0.0
2018-Apr-17 10:58N 53°45' W 000°16'0 0.0
2018-Apr-17 10:28N 53°45' W 000°16'0 0.0
2018-Apr-17 09:58N 53°45' W 000°16'0 0.0
2018-Apr-17 09:28N 53°45' W 000°16'0 0.0
2018-Apr-17 08:58N 53°45' W 000°16'0 0.0
2018-Apr-17 08:30N 53°45' W 000°16'0 0.0
2018-Apr-17 08:00N 53°45' W 000°16'0 0.0
2018-Apr-17 07:30N 53°45' W 000°16'0 0.2
2018-Apr-17 07:00N 53°45' W 000°16'2 3.7
2018-Apr-17 06:30N 53°43' W 000°15'714.9
2018-Apr-17 06:00N 53°37' W 000°06'815.7
2018-Apr-17 05:30N 53°34' E 000°06'3514.3
2018-Apr-17 03:03N 53°20' E 000°60'114.8
2018-Apr-17 03:00N 53°19' E 001°00'814.9
2018-Apr-17 02:28N 53°13' E 001°09'715.1
2018-Apr-17 02:00N 53°08' E 001°18'815.5
2018-Apr-17 01:30N 53°03' E 001°26'815.8
2018-Apr-17 01:00N 52°57' E 001°35'816.1
2018-Apr-17 00:30N 52°51' E 001°44'815.9
2018-Apr-17 00:00N 52°45' E 001°52'5014.0
2018-Apr-16 20:26N 51°59' E 002°27'613.5
2018-Apr-16 20:00N 51°54' E 002°31'713.4
2018-Apr-16 19:30N 51°48' E 002°36'713.4
2018-Apr-16 19:00N 51°42' E 002°41'713.8
2018-Apr-16 18:31N 51°36' E 002°46'714.3
2018-Apr-16 18:00N 51°31' E 002°54'714.4
2018-Apr-16 17:31N 51°25' E 003°01'714.3
2018-Apr-16 17:00N 51°22' E 003°11'2 3.1
2018-Apr-16 16:29N 51°20' E 003°11'0 0.0
2018-Apr-16 15:59N 51°20' E 003°11'0 0.0
2018-Apr-16 15:29N 51°20' E 003°11'0 0.0
2018-Apr-16 14:58N 51°20' E 003°11'0 0.0
2018-Apr-16 14:28N 51°20' E 003°11'0 0.0
2018-Apr-16 13:58N 51°20' E 003°11'0 0.0
2018-Apr-16 13:28N 51°20' E 003°11'0 0.0
2018-Apr-16 13:00N 51°20' E 003°11'0 0.0
2018-Apr-16 12:30N 51°20' E 003°11'0 0.0
2018-Apr-16 12:00N 51°20' E 003°11'0 0.0
2018-Apr-16 11:30N 51°20' E 003°11'0 0.0
2018-Apr-16 11:00N 51°20' E 003°11'0 0.0
2018-Apr-16 10:29N 51°20' E 003°11'0 0.0
2018-Apr-16 09:59N 51°20' E 003°11'0 0.0
2018-Apr-16 09:29N 51°20' E 003°11'0 0.0
2018-Apr-16 08:59N 51°20' E 003°11'0 0.0
2018-Apr-16 08:28N 51°20' E 003°11'0 0.0
2018-Apr-16 07:58N 51°20' E 003°11'0 0.0
2018-Apr-16 07:28N 51°20' E 003°11'0 0.9
2018-Apr-16 07:00N 51°21' E 003°12'612.7
2018-Apr-16 06:31N 51°24' E 003°04'816.5
2018-Apr-16 06:01N 51°29' E 002°53'917.4
2018-Apr-16 05:30N 51°35' E 002°43'916.9
2018-Apr-16 04:59N 51°43' E 002°36'816.3
2018-Apr-16 04:30N 51°51' E 002°33'4715.8
2018-Apr-16 01:31N 52°33' E 002°01'014.4
2018-Apr-16 01:30N 52°33' E 002°01'713.5
2018-Apr-16 01:00N 52°40' E 001°56'612.9
2018-Apr-16 00:30N 52°45' E 001°51'714.3
2018-Apr-16 00:00N 52°50' E 001°43'714.5
2018-Apr-15 23:30N 52°56' E 001°36'815.2
2018-Apr-15 23:00N 53°02' E 001°27'815.6
2018-Apr-15 22:30N 53°08' E 001°19'815.7
2018-Apr-15 22:00N 53°14' E 001°10'815.8
2018-Apr-15 21:30N 53°19' E 001°00'2715.7
2018-Apr-15 19:48N 53°32' E 000°21'516.3
2018-Apr-15 19:30N 53°33' E 000°13'917.3
2018-Apr-15 19:00N 53°35' W 000°01'916.9
2018-Apr-15 18:30N 53°40' W 000°13'5 9.8
2018-Apr-15 18:01N 53°44' W 000°16'0 0.2
2018-Apr-15 17:30N 53°45' W 000°16'0 0.0
2018-Apr-15 16:58N 53°45' W 000°16'0 0.0
2018-Apr-15 16:28N 53°45' W 000°16'0 0.0
2018-Apr-15 15:58N 53°45' W 000°16'0 0.0
2018-Apr-15 15:30N 53°45' W 000°16'0 0.0
2018-Apr-15 15:00N 53°45' W 000°16'0 0.0
2018-Apr-15 14:30N 53°45' W 000°16'0 0.0
2018-Apr-15 14:00N 53°45' W 000°16'0 0.0
2018-Apr-15 13:30N 53°45' W 000°16'0 0.0
2018-Apr-15 12:59N 53°45' W 000°16'0 0.0
2018-Apr-15 12:29N 53°45' W 000°16'0 0.0
2018-Apr-15 11:59N 53°45' W 000°16'0 0.0
2018-Apr-15 11:29N 53°45' W 000°16'0 0.0
2018-Apr-15 10:58N 53°45' W 000°16'0 0.0
2018-Apr-15 10:28N 53°45' W 000°16'0 0.0
2018-Apr-15 09:58N 53°45' W 000°16'0 0.0
2018-Apr-15 09:28N 53°45' W 000°16'0 0.0
2018-Apr-15 09:01N 53°45' W 000°16'0 0.0
2018-Apr-15 08:30N 53°45' W 000°16'0 0.0
2018-Apr-15 08:00N 53°45' W 000°16'0 0.2
2018-Apr-15 07:30N 53°44' W 000°16'1 2.0
2018-Apr-15 07:00N 53°44' W 000°15'612.6
2018-Apr-15 06:30N 53°38' W 000°10'713.9
2018-Apr-15 06:01N 53°35' E 000°01'714.4
2018-Apr-15 05:30N 53°33' E 000°12'612.9
2018-Apr-15 05:01N 53°30' E 000°22'712.7
2018-Apr-15 04:29N 53°28' E 000°32'1412.8
2018-Apr-15 03:25N 53°22' E 000°53'513.1
2018-Apr-15 03:00N 53°19' E 001°01'713.2
2018-Apr-15 02:31N 53°14' E 001°08'  

Dump ship's entire track history